Terminal Aerodrome Forecast
Issued by NWS

Home | Current Version | Previous Version | Text Only | Print | Product List | Glossary On
Versions: 1 2 3 4 5 6 7 8 9 10 11 12 13
228
FTUS46 KHNX 081416 AAA
TAFBFL
TAF AMD
KBFL 081416Z 0814/0912 VRB04KT P6SM SKC
      TEMPO 0814/0818 5SM HZ
     FM090600 VRB03KT 3SM BR SKC=

USA.gov is the U.S. government's official web portal to all federal, state and local government web resources and services.